Flugplatz Achmer

EDXA · Niedersachsen, Alemania

METAR pasados EDXA · Flugplatz Achmer

A continuación puedes ver los METAR de los últimos días. Selecciona un año para ver los METAR más antiguos, desde el año 2007 en adelante.

2 de diciembre de 2022

Hora Código Tiempo Temp. Visibilidad Cielo nuboso Viento METAR/SPECI
19:50
M
1 °C 10 km+ 1.500 ft 040° 040° 7 kt METAR EDDG 021850Z AUTO 04007KT 360V100 9999 OVC015 01/M01 Q1024 BECMG BKN012
19:20
M
1 °C 10 km+ 1.600 ft 050° 050° 8 kt METAR EDDG 021820Z AUTO 05008KT 360V100 9999 BKN016 01/M01 Q1024 BECMG BKN012
18:50
M
2 °C 10 km+ 1.700 ft 040° 040° 8 kt METAR EDDG 021750Z AUTO 04008KT 010V100 9999 BKN017 OVC023 02/M01 Q1024 BECMG BKN012
18:20
M
2 °C 10 km+ 1.700 ft 040° 040° 8 kt METAR EDDG 021720Z AUTO 04008KT 350V080 9999 OVC017 02/M02 Q1024 BECMG BKN012
17:50
M
2 °C 10 km+ 1.800 ft 050° 050° 8 kt METAR EDDG 021650Z AUTO 05008KT 010V100 9999 -SN OVC018 02/M02 Q1024 NOSIG
17:20
M
2 °C 10 km+ 1.900 ft 040° 040° 8 kt METAR EDDG 021620Z AUTO 04008KT 010V090 9999 BKN019 OVC026 02/M02 Q1024 NOSIG
16:50
M
2 °C 10 km+ 2.200 ft 050° 050° 8 kt METAR EDDG 021550Z AUTO 05008KT 360V100 9999 SCT017 OVC022 02/M02 Q1024 NOSIG
16:20
M
2 °C 10 km+ 1.700 ft 050° 050° 9 kt METAR EDDG 021520Z AUTO 05009KT 350V110 9999 OVC017 02/M02 Q1024 NOSIG
15:50
M
2 °C 10 km+ 1.500 ft 040° 040° 9 kt METAR EDDG 021450Z AUTO 04009KT 360V120 9999 OVC015 02/M01 Q1024 TEMPO BKN014
15:20
M
2 °C 10 km+ 1.600 ft 040° 040° 11 - 21 kt METAR EDDG 021420Z AUTO 04011G21KT 360V110 9999 OVC016 02/M01 Q1024 NOSIG
14:50
M
2 °C 10 km+ 1.400 ft 050° 050° 6 kt METAR EDDG 021350Z AUTO 05006KT 350V110 9999 BKN014 02/M01 Q1024 BECMG BKN015
14:20
M
2 °C 9 km 1.300 ft 050° 050° 8 kt METAR EDDG 021320Z AUTO 05008KT 010V110 9000 OVC013 02/M01 Q1024 BECMG BKN015
13:50
M
2 °C 8 km 1.200 ft 040° 040° 9 kt METAR EDDG 021250Z AUTO 04009KT 010V100 8000 BKN012 02/M01 Q1024 TEMPO BKN008
13:20
M
2 °C 7 km 1.100 ft 050° 050° 7 kt METAR EDDG 021220Z AUTO 05007KT 020V100 7000 OVC011 02/M01 Q1024 TEMPO BKN008
12:50
M
2 °C 6 km 1.100 ft 040° 040° 8 kt METAR EDDG 021150Z AUTO 04008KT 360V100 6000 OVC011 02/M01 Q1024 TEMPO BKN008
12:20
M
2 °C 6 km 1.000 ft 040° 040° 7 kt METAR EDDG 021120Z AUTO 04007KT 360V110 6000 OVC010 02/M01 Q1024 TEMPO BKN008
11:50
M
2 °C 6 km 1.000 ft 040° 040° 6 kt METAR EDDG 021050Z AUTO 04006KT 010V100 6000 OVC010 02/M01 Q1025 TEMPO BKN012
11:20
I
1 °C 7 km 900 ft 040° 040° 8 kt METAR EDDG 021020Z AUTO 04008KT 360V090 7000 OVC009 01/M00 Q1025 TEMPO BKN012
10:50
M
1 °C 10 km+ 1.000 ft 050° 050° 7 kt METAR EDDG 020950Z AUTO 05007KT 360V120 9999 OVC010 01/M01 Q1025 TEMPO BKN008
10:20
M
2 °C 10 km+ 1.200 ft 050° 050° 7 kt METAR EDDG 020920Z AUTO 05007KT 010V110 9999 BKN012 OVC031 02/M01 Q1025 NOSIG
09:50
M
2 °C 10 km+ 1.200 ft 050° 050° 6 kt METAR EDDG 020850Z AUTO 05006KT 360V110 9999 BKN012 OVC031 02/M01 Q1025 NOSIG
09:20
M
2 °C 10 km+ 1.200 ft 040° 040° 6 kt METAR EDDG 020820Z AUTO 04006KT 360V100 9999 BKN012 OVC030 02/M01 Q1025 TEMPO BKN009
08:50
M
2 °C 10 km+ 1.200 ft 040° 040° 7 kt METAR EDDG 020750Z AUTO 04007KT 010V120 9999 BKN012 OVC028 02/M01 Q1025 TEMPO BKN009
08:20
M
2 °C 10 km+ 1.200 ft 050° 050° 8 kt METAR EDDG 020720Z AUTO 05008KT 010V100 9999 BKN012 OVC030 02/M01 Q1025 TEMPO BKN009
07:50
I
2 °C 10 km+ 900 ft 050° 050° 6 kt METAR EDDG 020650Z AUTO 05006KT 360V100 9999 OVC009 02/M00 Q1024 NOSIG
07:20
I
2 °C 8 km 800 ft 040° 040° 9 kt METAR EDDG 020620Z AUTO 04009KT 360V080 8000 OVC008 02/M00 Q1024 TEMPO BKN012
06:50
I
2 °C 8 km 800 ft 040° 040° 8 kt METAR EDDG 020550Z AUTO 04008KT 330V080 8000 OVC008 02/00 Q1024 TEMPO BKN012
06:20
I
2 °C 8 km 900 ft 050° 050° 6 kt METAR EDDG 020520Z AUTO 05006KT 010V100 8000 OVC009 02/00 Q1024 TEMPO BKN007
05:50
I
2 °C 7 km 800 ft 040° 040° 7 kt METAR EDDG 020450Z AUTO 04007KT 360V090 7000 OVC008 02/00 Q1024 TEMPO BKN011
05:20
I
2 °C 7 km 700 ft 050° 050° 6 kt METAR EDDG 020420Z AUTO 05006KT 340V100 7000 BKN007 OVC011 02/00 Q1025 TEMPO SCT008 BKN011
04:50
I
2 °C 7 km 700 ft 040° 040° 6 kt METAR EDDG 020350Z AUTO 04006KT 340V110 7000 OVC007 02/01 Q1025
04:20
I
2 °C 7 km 700 ft Var Var 7 kt METAR EDDG 020320Z AUTO VRB07KT 7000 OVC007 02/01 Q1025 NOSIG
03:50
I
2 °C 6 km 700 ft 050° 050° 7 kt METAR EDDG 020250Z AUTO 05007KT 340V100 6000 BKN007 OVC018 02/01 Q1025 TEMPO SCT007 BKN020
03:20
I
2 °C 9 km 800 ft 040° 040° 7 kt METAR EDDG 020220Z AUTO 04007KT 010V110 9000 OVC008 OVC017 02/01 Q1025 TEMPO SCT008 BKN015
02:50
I
2 °C 10 km+ 900 ft 040° 040° 7 kt METAR EDDG 020150Z AUTO 04007KT 360V090 9999 BKN009 OVC017 02/01 Q1025 TEMPO BKN015
02:20
M
2 °C 10 km+ 1.700 ft 040° 040° 7 kt METAR EDDG 020120Z AUTO 04007KT 010V100 9999 SCT010 OVC017 02/01 Q1025 TEMPO BKN010
01:50
M
2 °C 10 km+ 1.700 ft 030° 030° 6 kt METAR EDDG 020050Z AUTO 03006KT 9999 FEW010 OVC017 02/01 Q1026 NOSIG
01:20
M
3 °C 8 km 1.200 ft 050° 050° 4 kt METAR EDDG 020020Z AUTO 05004KT 360V120 8000 BKN012 OVC018 03/01 Q1026 NOSIG
00:50
M
3 °C 7 km 1.300 ft 050° 050° 4 kt METAR EDDG 012350Z AUTO 05004KT 010V130 7000 OVC013 03/01 Q1026 TEMPO BKN009
00:20
M
3 °C 7 km 1.200 ft 040° 040° 3 kt METAR EDDG 012320Z AUTO 04003KT 010V100 7000 OVC012 03/01 Q1026 TEMPO BKN009

1 de diciembre de 2022

Hora Código Tiempo Temp. Visibilidad Cielo nuboso Viento METAR/SPECI
23:50
M
3 °C 7 km 1.000 ft 040° 040° 4 kt METAR EDDG 012250Z AUTO 04004KT 010V120 7000 BKN010 OVC017 03/01 Q1026 TEMPO BKN009
23:20
M
3 °C 8 km 1.100 ft 050° 050° 4 kt METAR EDDG 012220Z AUTO 05004KT 350V130 8000 BKN011 OVC016 03/01 Q1027 TEMPO BKN009
22:50
M
3 °C 8 km 1.300 ft 040° 040° 4 kt METAR EDDG 012150Z AUTO 04004KT 010V090 8000 BKN013 OVC020 03/01 Q1027 NOSIG
22:20
M
3 °C 9 km 2.000 ft 050° 050° 3 kt METAR EDDG 012120Z AUTO 05003KT 360V160 9000 OVC020 03/01 Q1027 TEMPO BKN014
21:50
M
3 °C 8 km 1.800 ft 040° 040° 4 kt METAR EDDG 012050Z AUTO 04004KT 360V110 8000 FEW012 OVC018 03/01 Q1027 TEMPO BKN014
21:20
M
3 °C 8 km 1.400 ft 040° 040° 6 kt METAR EDDG 012020Z AUTO 04006KT 010V090 8000 BKN014 OVC019 03/00 Q1027 TEMPO SCT014
20:50
M
3 °C 10 km+ 1.600 ft 050° 050° 4 kt METAR EDDG 011950Z AUTO 05004KT 350V110 9999 OVC016 03/00 Q1027 TEMPO BKN012
20:20
M
3 °C 10 km+ 1.500 ft 060° 060° 4 kt METAR EDDG 011920Z AUTO 06004KT 020V130 9999 OVC015 03/00 Q1027 TEMPO BKN012
19:50
M
3 °C 10 km+ 1.500 ft 050° 050° 6 kt METAR EDDG 011850Z AUTO 05006KT 360V090 9999 OVC015 03/00 Q1027 TEMPO BKN014
19:20
M
3 °C 8 km 1.500 ft 040° 040° 5 kt METAR EDDG 011820Z AUTO 04005KT 010V100 8000 OVC015 03/01 Q1027 TEMPO BKN014
18:50
M
4 °C 8 km 1.300 ft 040° 040° 6 kt METAR EDDG 011750Z AUTO 04006KT 010V080 8000 OVC013 04/01 Q1027 NOSIG
18:20
M
4 °C 10 km+ 1.500 ft 070° 070° 3 kt METAR EDDG 011720Z AUTO 07003KT 020V120 9999 OVC015 04/01 Q1027 TEMPO BKN014
17:50
M
4 °C 7 km 1.400 ft 050° 050° 4 kt METAR EDDG 011650Z AUTO 05004KT 360V110 7000 OVC014 04/02 Q1027 TEMPO BKN015
17:20
M
4 °C 7 km 1.300 ft 050° 050° 4 kt METAR EDDG 011620Z AUTO 05004KT 360V110 7000 BKN013 OVC038 04/02 Q1027 NOSIG
16:50
M
4 °C 8 km 1.400 ft 040° 040° 5 kt METAR EDDG 011550Z AUTO 04005KT 350V100 8000 BKN014 OVC040 04/02 Q1027 TEMPO BKN015
16:20
M
4 °C 8 km 1.500 ft 020° 020° 6 kt METAR EDDG 011520Z AUTO 02006KT 8000 BKN015 OVC044 04/02 Q1027 TEMPO BKN014
15:50
M
5 °C 7 km 1.300 ft 020° 020° 6 kt METAR EDDG 011450Z AUTO 02006KT 360V060 7000 BKN013 OVC045 05/02 Q1027 TEMPO BKN015
15:20
M
5 °C 7 km 1.400 ft 040° 040° 5 kt METAR EDDG 011420Z AUTO 04005KT 360V080 7000 BKN014 05/02 Q1027 TEMPO BKN015
14:50
M
5 °C 7 km 1.600 ft 040° 040° 4 kt METAR EDDG 011350Z AUTO 04004KT 360V100 7000 FEW011 BKN016 OVC043 05/03 Q1026 NOSIG
14:20
M
5 °C 6 km 1.200 ft 040° 040° 6 kt METAR EDDG 011320Z AUTO 04006KT 360V100 6000 BKN012 BKN017 OVC043 05/03 Q1027 NOSIG
13:50
M
5 °C 5 km 1.100 ft 050° 050° 4 kt METAR EDDG 011250Z AUTO 05004KT 340V100 5000 BR BKN011 05/03 Q1027 NOSIG
13:20
I
5 °C 5 km 900 ft 050° 050° 4 kt METAR EDDG 011220Z AUTO 05004KT 010V130 5000 BR BKN009 05/03 Q1027 TEMPO 4000 BR BKN010
12:50
M
5 °C 6 km 1.000 ft 040° 040° 5 kt METAR EDDG 011150Z AUTO 04005KT 360V090 6000 OVC010 05/03 Q1027 TEMPO OVC009
12:20
M
5 °C 6 km 1.000 ft 040° 040° 4 kt METAR EDDG 011120Z AUTO 04004KT 360V110 6000 OVC010 05/03 Q1027 NOSIG
11:50
M
5 °C 6 km 1.000 ft 040° 040° 5 kt METAR EDDG 011050Z AUTO 04005KT 360V090 6000 OVC010 05/03 Q1027 NOSIG
11:20
I
5 °C 5 km 900 ft 040° 040° 5 kt METAR EDDG 011020Z AUTO 04005KT 010V080 5000 BR BKN009 OVC014 05/03 Q1027 TEMPO BKN010 OVC015
10:50
I
5 °C 4,8 km 700 ft 040° 040° 5 kt METAR EDDG 010950Z AUTO 04005KT 360V080 4800 BR OVC007 05/03 Q1028 BECMG 6000
10:20
M
5 °C 6 km 1.000 ft 020° 020° 7 kt METAR EDDG 010920Z AUTO 02007KT 6000 OVC010 05/03 Q1027 TEMPO BKN008
09:50
I
5 °C 5 km 700 ft 030° 030° 6 kt METAR EDDG 010850Z AUTO 03006KT 360V070 5000 BR BKN007 OVC012 05/03 Q1027 TEMPO 4000 BR
09:20
I
5 °C 6 km 700 ft 040° 040° 4 kt METAR EDDG 010820Z AUTO 04004KT 350V130 6000 BKN007 OVC011 05/03 Q1027 TEMPO BKN010
08:50
L
5 °C 5 km 400 ft 030° 030° 6 kt METAR EDDG 010750Z AUTO 03006KT 360V080 5000 BR OVC004 05/04 Q1027 TEMPO 4000
08:20
L
4 °C 6 km 400 ft 020° 020° 8 kt METAR EDDG 010720Z AUTO 02008KT 6000 OVC004 04/04 Q1027 TEMPO OVC005
07:50
L
5 °C 5 km 300 ft 030° 030° 8 kt METAR EDDG 010650Z AUTO 03008KT 5000 BR OVC003 05/04 Q1027 TEMPO 4000 BR
07:20
L
5 °C 3,8 km 300 ft 030° 030° 5 kt METAR EDDG 010620Z AUTO 03005KT 010V070 3800 BR OVC003 05/04 Q1027 NOSIG
06:50
L
5 °C 3,7 km 300 ft 010° 010° 6 kt METAR EDDG 010550Z AUTO 01006KT 3700 BR BKN003 05/04 Q1027 REDZ TEMPO BKN005
06:20
L
5 °C 2,7 km 300 ft 010° 010° 6 kt METAR EDDG 010520Z AUTO 01006KT 2700 BR OVC003 05/04 Q1026 TEMPO 3500
05:50
L
5 °C 3,9 km 300 ft 360° 360° 7 kt METAR EDDG 010450Z AUTO 36007KT 3900 BR OVC003 05/04 Q1026 TEMPO 6000
05:20
L
5 °C 4,8 km 300 ft 010° 010° 7 kt METAR EDDG 010420Z AUTO 01007KT 4800 BR OVC003 05/04 Q1026 TEMPO 6000
04:50
L
5 °C 5 km 300 ft 010° 010° 7 kt METAR EDDG 010350Z AUTO 01007KT 5000 BR OVC003 05/04 Q1026 TEMPO 4000 BR
04:20
L
5 °C 5 km 300 ft 360° 360° 7 kt METAR EDDG 010320Z AUTO 36007KT 5000 BR BKN003 05/04 Q1026 TEMPO 4000 BR
03:50
L
5 °C 6 km 400 ft 010° 010° 6 kt METAR EDDG 010250Z AUTO 01006KT 6000 OVC004 05/04 Q1026 TEMPO 4000 BR
03:20
I
5 °C 8 km 600 ft 010° 010° 5 kt METAR EDDG 010220Z AUTO 01005KT 8000 OVC006 05/04 Q1026 TEMPO BKN004
02:50
I
5 °C 9 km 700 ft 010° 010° 5 kt METAR EDDG 010150Z AUTO 01005KT 9000 OVC007 05/04 Q1026 NOSIG
02:20
I
5 °C 7 km 600 ft 340° 340° 3 kt METAR EDDG 010120Z AUTO 34003KT 7000 OVC006 05/04 Q1026 NOSIG
01:50
L
5 °C 6 km 400 ft 360° 360° 5 kt METAR EDDG 010050Z AUTO 36005KT 6000 OVC004 05/04 Q1026 TEMPO 4000 BR
01:20
I
5 °C 8 km 700 ft 010° 010° 5 kt METAR EDDG 010020Z AUTO 01005KT 350V060 8000 OVC007 05/04 Q1026 NOSIG
00:50
I
5 °C 7 km 600 ft 360° 360° 4 kt METAR EDDG 302350Z AUTO 36004KT 330V040 7000 OVC006 05/04 Q1026 TEMPO BKN004
00:20
L
5 °C 6 km 400 ft 010° 010° 5 kt METAR EDDG 302320Z AUTO 01005KT 6000 OVC004 05/04 Q1026 TEMPO 4000 BR

30 de noviembre de 2022

Hora Código Tiempo Temp. Visibilidad Cielo nuboso Viento METAR/SPECI
23:50
L
5 °C 5 km 400 ft 360° 360° 3 kt METAR EDDG 302250Z AUTO 36003KT 330V030 5000 BR BKN004 OVC007 05/04 Q1026 TEMPO 4000 BR
23:20
I
5 °C 6 km 500 ft 030° 030° 4 kt METAR EDDG 302220Z AUTO 03004KT 6000 OVC005 05/04 Q1026 TEMPO 4000 BR BKN004
22:50
L
5 °C 4,9 km 400 ft 010° 010° 5 kt METAR EDDG 302150Z AUTO 01005KT 4900 BR OVC004 05/04 Q1026 NOSIG
22:20
L
5 °C 4,7 km 400 ft 030° 030° 5 kt METAR EDDG 302120Z AUTO 03005KT 360V060 4700 BR OVC004 05/05 Q1026
21:50
L
5 °C 4,6 km 300 ft 020° 020° 4 kt METAR EDDG 302050Z AUTO 02004KT 4600 BR OVC003 05/04 Q1026 NOSIG
21:20
L
5 °C 4,4 km 300 ft 020° 020° 6 kt METAR EDDG 302020Z AUTO 02006KT 4400 BR OVC003 05/05 Q1026 NOSIG
20:50
L
5 °C 4,2 km 300 ft 020° 020° 5 kt METAR EDDG 301950Z AUTO 02005KT 4200 BR OVC003 05/04 Q1026 NOSIG
20:20
L
5 °C 4,6 km 300 ft 020° 020° 6 kt METAR EDDG 301920Z AUTO 02006KT 340V040 4600 BR OVC003 05/04 Q1026 NOSIG
19:50
L
5 °C 4,5 km 300 ft 020° 020° 6 kt METAR EDDG 301850Z AUTO 02006KT 4500 BR OVC003 05/04 Q1025 NOSIG
19:20
L
5 °C 4,3 km 300 ft 020° 020° 6 kt METAR EDDG 301820Z AUTO 02006KT 4300 BR OVC003 05/04 Q1025 NOSIG
18:50
L
5 °C 5 km 300 ft 020° 020° 7 kt METAR EDDG 301750Z AUTO 02007KT 5000 BR BKN003 05/04 Q1025 TEMPO 4000
18:20
L
5 °C 3,3 km 200 ft 010° 010° 4 kt METAR EDDG 301720Z AUTO 01004KT 3300 -DZ BR BKN002 05/04 Q1025 NOSIG
17:50
L
5 °C 4,1 km 300 ft 010° 010° 5 kt METAR EDDG 301650Z AUTO 01005KT 4100 -RA BR OVC003 05/04 Q1025 NOSIG
17:20
L
5 °C 3,7 km 400 ft 020° 020° 6 kt METAR EDDG 301620Z AUTO 02006KT 3700 -RADZ BR OVC004 05/04 Q1025 REDZ TEMPO OVC005
16:50
L
5 °C 5 km 400 ft 020° 020° 5 kt METAR EDDG 301550Z AUTO 02005KT 5000 -DZ BR OVC004 05/04 Q1024 TEMPO 2500 -DZ BKN004
16:20
L
5 °C 6 km 400 ft 020° 020° 5 kt METAR EDDG 301520Z AUTO 02005KT 6000 OVC004 05/05 Q1024 TEMPO 3500 BR OVC005
15:50
L
5 °C 10 km+ 400 ft 010° 010° 4 kt METAR EDDG 301450Z AUTO 01004KT 340V050 9999 -DZ OVC004 05/04 Q1024 TEMPO OVC005
15:20
L
5 °C 10 km+ 400 ft 010° 010° 6 kt METAR EDDG 301420Z AUTO 01006KT 9999 OVC004 05/04 Q1024 TEMPO OVC005
14:50
I
5 °C 10 km+ 500 ft 010° 010° 5 kt METAR EDDG 301350Z AUTO 01005KT 9999 OVC005 05/04 Q1024 TEMPO BKN004
14:20
I
5 °C 10 km+ 500 ft 360° 360° 6 kt METAR EDDG 301320Z AUTO 36006KT 9999 BKN005 05/04 Q1024 TEMPO BKN004
13:50
I
5 °C 10 km+ 500 ft 020° 020° 5 kt METAR EDDG 301250Z AUTO 02005KT 9999 BKN005 05/04 Q1024 TEMPO BKN004
13:20
I
5 °C 10 km+ 500 ft 020° 020° 5 kt METAR EDDG 301220Z AUTO 02005KT 350V050 9999 -DZ BKN005 05/04 Q1024 TEMPO SCT005 OVC010
12:50
I
6 °C 10 km+ 600 ft 360° 360° 5 kt METAR EDDG 301150Z AUTO 36005KT 9999 BKN006 OVC011 06/05 Q1024 BECMG SCT005
12:20
L
5 °C 6 km 300 ft 020° 020° 6 kt METAR EDDG 301120Z AUTO 02006KT 6000 -DZ BKN003 OVC007 05/05 Q1023 BECMG BKN006
11:50
L
5 °C 4,1 km 400 ft 350° 350° 6 kt METAR EDDG 301050Z AUTO 35006KT 9999 4100 BR BKN004 05/05 Q1023 BECMG BKN006
11:20
L
6 °C 6 km 300 ft 350° 350° 6 kt METAR EDDG 301020Z AUTO 35006KT 6000 OVC003 06/05 Q1023 TEMPO 3000 BR BKN001
10:50
L
6 °C 3,7 km 300 ft 330° 330° 5 kt METAR EDDG 300950Z AUTO 33005KT 3700 BR BKN003 06/05 Q1023 TEMPO 1200 BR BKN001

Nosotros y terceros seguimos tu comportamiento en Internet en nuestro sitio web con cookies. Si continúas, asumimos que estás de acuerdo con nuestra Política de cookies.